SIA964 WSSS-WIII
Flight info
| Callsign | SIA964 |
|---|---|
| Flight time | 1h 17m |
| Altitude | 33000 |
| Route | ANITO7A ANITO B470 BUNIK |
| Aircraft | B77W/H-SDE1E2E3FGHIJ4J5M1P2RWXYZ/LB1D1 |
Departure
| Time | 2026-05-05 09:35 |
|---|---|
| Airport | Singapore Changi Airport (WSSS) |
Arrival
| Time | 2026-05-05 10:53 |
|---|---|
| Airport | Soekarno-Hatta International Airport (WIII) |
| Time | Latitude | Longitude | Altitude | Speed | Heading |
|---|---|---|---|---|---|
| 2026-05-05 08:49 | 1.35041 | 103.98823 | 66 ft | 0 kts | 292° |
| 2026-05-05 09:26 | 1.35038 | 103.98831 | 37 ft | 4 kts | 292° |
| 2026-05-05 09:26 | 1.35027 | 103.98856 | 36 ft | 4 kts | 292° |
| 2026-05-05 09:27 | 1.35020 | 103.98875 | 35 ft | 4 kts | 276° |
| 2026-05-05 09:27 | 1.35021 | 103.98894 | 34 ft | 4 kts | 238° |
| 2026-05-05 09:27 | 1.35036 | 103.98910 | 35 ft | 4 kts | 207° |
| 2026-05-05 09:27 | 1.35046 | 103.98914 | 35 ft | 0 kts | 203° |
| 2026-05-05 09:29 | 1.35044 | 103.98914 | 35 ft | 2 kts | 203° |
| 2026-05-05 09:30 | 1.35004 | 103.98897 | 35 ft | 10 kts | 203° |
| 2026-05-05 09:30 | 1.34937 | 103.98892 | 37 ft | 10 kts | 153° |
| 2026-05-05 09:30 | 1.34901 | 103.98951 | 37 ft | 11 kts | 114° |
| 2026-05-05 09:30 | 1.34865 | 103.99033 | 37 ft | 14 kts | 113° |
| 2026-05-05 09:31 | 1.34840 | 103.99104 | 37 ft | 10 kts | 92° |
| 2026-05-05 09:31 | 1.34887 | 103.99148 | 37 ft | 10 kts | 20° |
| 2026-05-05 09:31 | 1.34953 | 103.99175 | 37 ft | 10 kts | 22° |
| 2026-05-05 09:31 | 1.35022 | 103.99204 | 37 ft | 14 kts | 22° |
| 2026-05-05 09:32 | 1.35152 | 103.99258 | 37 ft | 24 kts | 22° |
| 2026-05-05 09:32 | 1.35316 | 103.99327 | 38 ft | 27 kts | 23° |
| 2026-05-05 09:32 | 1.35492 | 103.99401 | 38 ft | 28 kts | 22° |
| 2026-05-05 09:32 | 1.35670 | 103.99475 | 38 ft | 28 kts | 22° |
| 2026-05-05 09:33 | 1.35847 | 103.99550 | 37 ft | 28 kts | 23° |
| 2026-05-05 09:33 | 1.36024 | 103.99624 | 37 ft | 28 kts | 22° |
| 2026-05-05 09:33 | 1.36201 | 103.99697 | 37 ft | 22 kts | 23° |
| 2026-05-05 09:33 | 1.36236 | 103.99722 | 36 ft | 5 kts | 57° |
| 2026-05-05 09:34 | 1.36243 | 103.99759 | 36 ft | 6 kts | 94° |
| 2026-05-05 09:34 | 1.36226 | 103.99800 | 36 ft | 7 kts | 120° |
| 2026-05-05 09:34 | 1.36201 | 103.99845 | 35 ft | 8 kts | 118° |
| 2026-05-05 09:34 | 1.36161 | 103.99879 | 35 ft | 8 kts | 173° |
| 2026-05-05 09:35 | 1.36026 | 103.99828 | 35 ft | 45 kts | 202° |
| 2026-05-05 09:35 | 1.34521 | 103.99197 | 53 ft | 176 kts | 199° |
| 2026-05-05 09:35 | 1.33408 | 103.98737 | 795 ft | 168 kts | 201° |
| 2026-05-05 09:36 | 1.32342 | 103.98306 | 1481 ft | 173 kts | 201° |
| 2026-05-05 09:36 | 1.31188 | 103.97815 | 1980 ft | 188 kts | 203° |
| 2026-05-05 09:36 | 1.29920 | 103.97267 | 2226 ft | 214 kts | 203° |
| 2026-05-05 09:36 | 1.28431 | 103.96630 | 2429 ft | 246 kts | 203° |
| 2026-05-05 09:37 | 1.26814 | 103.95953 | 2910 ft | 261 kts | 199° |
| 2026-05-05 09:37 | 1.24992 | 103.95686 | 3534 ft | 269 kts | 181° |
| 2026-05-05 09:37 | 1.23096 | 103.95671 | 4339 ft | 274 kts | 180° |
| 2026-05-05 09:37 | 1.21206 | 103.95799 | 5112 ft | 275 kts | 162° |
| 2026-05-05 09:38 | 1.19555 | 103.96765 | 5842 ft | 278 kts | 139° |
| 2026-05-05 09:38 | 1.18160 | 103.98124 | 6670 ft | 281 kts | 134° |
| 2026-05-05 09:38 | 1.16810 | 103.99550 | 7447 ft | 284 kts | 133° |
| 2026-05-05 09:38 | 1.15441 | 104.00978 | 8215 ft | 287 kts | 134° |
| 2026-05-05 09:39 | 1.14027 | 104.02410 | 9001 ft | 290 kts | 135° |
| 2026-05-05 09:39 | 1.12577 | 104.03840 | 9764 ft | 294 kts | 136° |
| 2026-05-05 09:39 | 1.11099 | 104.05266 | 10435 ft | 301 kts | 136° |
| 2026-05-05 09:39 | 1.09523 | 104.06765 | 10700 ft | 325 kts | 136° |
| 2026-05-05 09:40 | 1.07811 | 104.08374 | 10894 ft | 350 kts | 136° |
| 2026-05-05 09:40 | 1.05964 | 104.10096 | 11124 ft | 374 kts | 137° |
| 2026-05-05 09:40 | 1.04040 | 104.11880 | 11735 ft | 384 kts | 137° |
| 2026-05-05 09:40 | 1.02050 | 104.13717 | 12522 ft | 391 kts | 137° |
| 2026-05-05 09:41 | 1.00108 | 104.15506 | 13350 ft | 395 kts | 137° |
| 2026-05-05 09:41 | 0.98062 | 104.17389 | 14122 ft | 399 kts | 136° |
| 2026-05-05 09:41 | 0.96016 | 104.19271 | 14862 ft | 403 kts | 136° |
| 2026-05-05 09:41 | 0.93929 | 104.21191 | 15609 ft | 407 kts | 136° |
| 2026-05-05 09:42 | 0.91835 | 104.23116 | 16337 ft | 412 kts | 136° |
| 2026-05-05 09:42 | 0.89703 | 104.25077 | 17048 ft | 416 kts | 136° |
| 2026-05-05 09:42 | 0.87564 | 104.27045 | 17747 ft | 421 kts | 136° |
| 2026-05-05 09:42 | 0.85382 | 104.29052 | 18382 ft | 425 kts | 136° |
| 2026-05-05 09:43 | 0.83279 | 104.30987 | 18943 ft | 429 kts | 136° |
| 2026-05-05 09:43 | 0.81054 | 104.33033 | 19555 ft | 432 kts | 136° |
| 2026-05-05 09:43 | 0.78831 | 104.35077 | 20128 ft | 436 kts | 136° |
| 2026-05-05 09:43 | 0.76582 | 104.37146 | 20701 ft | 440 kts | 136° |
| 2026-05-05 09:44 | 0.74320 | 104.39227 | 21282 ft | 444 kts | 136° |
| 2026-05-05 09:44 | 0.72041 | 104.41323 | 21856 ft | 447 kts | 136° |
| 2026-05-05 09:44 | 0.69745 | 104.43435 | 22399 ft | 451 kts | 136° |
| 2026-05-05 09:44 | 0.67432 | 104.45562 | 22915 ft | 455 kts | 136° |
| 2026-05-05 09:45 | 0.65183 | 104.47631 | 23403 ft | 459 kts | 136° |
| 2026-05-05 09:45 | 0.62828 | 104.49798 | 23829 ft | 462 kts | 136° |
| 2026-05-05 09:45 | 0.60432 | 104.52001 | 24276 ft | 465 kts | 136° |
| 2026-05-05 09:45 | 0.58042 | 104.54199 | 24720 ft | 468 kts | 136° |
| 2026-05-05 09:46 | 0.55626 | 104.56422 | 25149 ft | 471 kts | 136° |
| 2026-05-05 09:46 | 0.53208 | 104.58645 | 25562 ft | 474 kts | 136° |
| 2026-05-05 09:46 | 0.50752 | 104.60895 | 25974 ft | 477 kts | 137° |
| 2026-05-05 09:46 | 0.48108 | 104.62922 | 26358 ft | 481 kts | 146° |
| 2026-05-05 09:47 | 0.45224 | 104.64561 | 26772 ft | 484 kts | 153° |
| 2026-05-05 09:47 | 0.42071 | 104.65904 | 27183 ft | 488 kts | 160° |
| 2026-05-05 09:47 | 0.38894 | 104.66866 | 27547 ft | 491 kts | 163° |
| 2026-05-05 09:47 | 0.35804 | 104.67736 | 27850 ft | 495 kts | 163° |
| 2026-05-05 09:48 | 0.32873 | 104.68554 | 28181 ft | 496 kts | 163° |
| 2026-05-05 09:48 | 0.29887 | 104.69402 | 28548 ft | 497 kts | 163° |
| 2026-05-05 09:48 | 0.27008 | 104.70236 | 28849 ft | 499 kts | 162° |
| 2026-05-05 09:48 | 0.24007 | 104.71121 | 29103 ft | 502 kts | 162° |
| 2026-05-05 09:49 | 0.21102 | 104.71985 | 29328 ft | 505 kts | 162° |
| 2026-05-05 09:49 | 0.18073 | 104.72887 | 29608 ft | 506 kts | 162° |
| 2026-05-05 09:49 | 0.15151 | 104.73754 | 29929 ft | 506 kts | 162° |
| 2026-05-05 09:49 | 0.12125 | 104.74651 | 30320 ft | 503 kts | 162° |
| 2026-05-05 09:50 | 0.09231 | 104.75512 | 30739 ft | 501 kts | 162° |
| 2026-05-05 09:50 | 0.06233 | 104.76405 | 31025 ft | 501 kts | 162° |
| 2026-05-05 09:50 | 0.03336 | 104.77269 | 31236 ft | 503 kts | 162° |
| 2026-05-05 09:50 | 0.00326 | 104.78167 | 31581 ft | 502 kts | 162° |
| 2026-05-05 09:51 | -0.02558 | 104.79027 | 31996 ft | 499 kts | 162° |
| 2026-05-05 09:51 | -0.05538 | 104.79915 | 32390 ft | 497 kts | 162° |
| 2026-05-05 09:51 | -0.08407 | 104.80770 | 32656 ft | 498 kts | 162° |
| 2026-05-05 09:51 | -0.11396 | 104.81661 | 32891 ft | 500 kts | 162° |
| 2026-05-05 09:52 | -0.14274 | 104.82519 | 33241 ft | 498 kts | 162° |
| 2026-05-05 09:52 | -0.17263 | 104.83410 | 33706 ft | 495 kts | 162° |
| 2026-05-05 09:52 | -0.20114 | 104.84259 | 33994 ft | 495 kts | 162° |
| 2026-05-05 09:52 | -0.23081 | 104.85144 | 34180 ft | 497 kts | 162° |
| 2026-05-05 09:53 | -0.25910 | 104.86101 | 34423 ft | 496 kts | 157° |
| 2026-05-05 09:53 | -0.28733 | 104.87345 | 34799 ft | 492 kts | 153° |
| 2026-05-05 09:53 | -0.31341 | 104.88717 | 35153 ft | 489 kts | 149° |
| 2026-05-05 09:53 | -0.33918 | 104.90358 | 35367 ft | 490 kts | 145° |
| 2026-05-05 09:54 | -0.36586 | 104.92165 | 35526 ft | 492 kts | 144° |
| 2026-05-05 09:54 | -0.39408 | 104.94109 | 35827 ft | 491 kts | 144° |
| 2026-05-05 09:54 | -0.41589 | 104.95616 | 36123 ft | 489 kts | 144° |
| 2026-05-05 09:54 | -0.44401 | 104.97551 | 36471 ft | 487 kts | 145° |
| 2026-05-05 09:55 | -0.47194 | 104.99462 | 36743 ft | 488 kts | 145° |
| 2026-05-05 09:55 | -0.50014 | 105.01382 | 36771 ft | 492 kts | 145° |
| 2026-05-05 09:55 | -0.55680 | 105.05218 | 36817 ft | 490 kts | 145° |
| 2026-05-05 09:56 | -0.61285 | 105.09005 | 36822 ft | 484 kts | 145° |
| 2026-05-05 09:56 | -0.66856 | 105.12771 | 36826 ft | 483 kts | 145° |
| 2026-05-05 09:57 | -0.72420 | 105.16534 | 36833 ft | 483 kts | 145° |
| 2026-05-05 09:57 | -0.77987 | 105.20300 | 36830 ft | 483 kts | 145° |
| 2026-05-05 09:58 | -0.83559 | 105.24069 | 36833 ft | 485 kts | 145° |
| 2026-05-05 09:58 | -0.89151 | 105.27853 | 36831 ft | 486 kts | 145° |
| 2026-05-05 09:59 | -0.94755 | 105.31644 | 36827 ft | 487 kts | 145° |
| 2026-05-05 09:59 | -1.00279 | 105.35381 | 36829 ft | 488 kts | 145° |
| 2026-05-05 10:00 | -1.05955 | 105.39221 | 36827 ft | 488 kts | 145° |
| 2026-05-05 10:00 | -1.11516 | 105.42983 | 36826 ft | 488 kts | 145° |
| 2026-05-05 10:01 | -1.17153 | 105.46798 | 36829 ft | 488 kts | 145° |
| 2026-05-05 10:01 | -1.22662 | 105.50526 | 36828 ft | 488 kts | 145° |
| 2026-05-05 10:02 | -1.28277 | 105.54325 | 36827 ft | 488 kts | 145° |
| 2026-05-05 10:02 | -1.33897 | 105.58129 | 36830 ft | 488 kts | 145° |
| 2026-05-05 10:03 | -1.39491 | 105.61915 | 36830 ft | 487 kts | 145° |
| 2026-05-05 10:03 | -1.45095 | 105.65708 | 36830 ft | 487 kts | 145° |
| 2026-05-05 10:04 | -1.50682 | 105.69489 | 36828 ft | 487 kts | 145° |
| 2026-05-05 10:04 | -1.56255 | 105.73262 | 36830 ft | 488 kts | 145° |
| 2026-05-05 10:05 | -1.61891 | 105.77077 | 36829 ft | 488 kts | 145° |
| 2026-05-05 10:05 | -1.67372 | 105.80787 | 36827 ft | 488 kts | 145° |
| 2026-05-05 10:06 | -1.73063 | 105.84641 | 36834 ft | 488 kts | 145° |
| 2026-05-05 10:06 | -1.78683 | 105.88446 | 36827 ft | 488 kts | 145° |
| 2026-05-05 10:07 | -1.84290 | 105.92243 | 36832 ft | 488 kts | 145° |
| 2026-05-05 10:07 | -1.89909 | 105.96048 | 36832 ft | 488 kts | 145° |
| 2026-05-05 10:08 | -1.95530 | 105.99856 | 36830 ft | 488 kts | 145° |
| 2026-05-05 10:08 | -2.01155 | 106.03666 | 36831 ft | 489 kts | 145° |
| 2026-05-05 10:09 | -2.06782 | 106.07479 | 36831 ft | 489 kts | 145° |
| 2026-05-05 10:09 | -2.12414 | 106.11286 | 36828 ft | 489 kts | 146° |
| 2026-05-05 10:10 | -2.18546 | 106.14230 | 36834 ft | 490 kts | 160° |
| 2026-05-05 10:10 | -2.25188 | 106.15801 | 36837 ft | 492 kts | 169° |
| 2026-05-05 10:11 | -2.31944 | 106.16890 | 36832 ft | 492 kts | 170° |
| 2026-05-05 10:11 | -2.38709 | 106.17982 | 36826 ft | 492 kts | 169° |
| 2026-05-05 10:12 | -2.45425 | 106.19112 | 36831 ft | 493 kts | 169° |
| 2026-05-05 10:12 | -2.52182 | 106.20271 | 36833 ft | 493 kts | 169° |
| 2026-05-05 10:13 | -2.58940 | 106.21433 | 36835 ft | 493 kts | 169° |
| 2026-05-05 10:13 | -2.65696 | 106.22593 | 36834 ft | 493 kts | 169° |
| 2026-05-05 10:14 | -2.72461 | 106.23752 | 36837 ft | 493 kts | 169° |
| 2026-05-05 10:14 | -2.78624 | 106.24809 | 36835 ft | 493 kts | 169° |
| 2026-05-05 10:15 | -2.84586 | 106.25830 | 36839 ft | 493 kts | 169° |
| 2026-05-05 10:15 | -2.90549 | 106.26853 | 36836 ft | 493 kts | 169° |
| 2026-05-05 10:16 | -2.96513 | 106.27875 | 36838 ft | 493 kts | 169° |
| 2026-05-05 10:16 | -3.02477 | 106.28898 | 36837 ft | 493 kts | 169° |
| 2026-05-05 10:17 | -3.08439 | 106.29921 | 36838 ft | 493 kts | 169° |
| 2026-05-05 10:17 | -3.14402 | 106.30944 | 36839 ft | 493 kts | 169° |
| 2026-05-05 10:18 | -3.20362 | 106.31966 | 36836 ft | 493 kts | 169° |
| 2026-05-05 10:18 | -3.26322 | 106.32989 | 36841 ft | 493 kts | 169° |
| 2026-05-05 10:19 | -3.32281 | 106.34011 | 36837 ft | 493 kts | 169° |
| 2026-05-05 10:19 | -3.38238 | 106.35034 | 36842 ft | 493 kts | 169° |
| 2026-05-05 10:20 | -3.44195 | 106.36056 | 36841 ft | 493 kts | 169° |
| 2026-05-05 10:20 | -3.50150 | 106.37079 | 36840 ft | 493 kts | 169° |
| 2026-05-05 10:21 | -3.56105 | 106.38101 | 36843 ft | 492 kts | 170° |
| 2026-05-05 10:21 | -3.62271 | 106.39160 | 36842 ft | 492 kts | 170° |
| 2026-05-05 10:22 | -3.69033 | 106.40386 | 36844 ft | 492 kts | 169° |
| 2026-05-05 10:22 | -3.75767 | 106.41657 | 36843 ft | 492 kts | 169° |
| 2026-05-05 10:23 | -3.82498 | 106.42926 | 36844 ft | 492 kts | 169° |
| 2026-05-05 10:23 | -3.89238 | 106.44186 | 36845 ft | 493 kts | 169° |
| 2026-05-05 10:24 | -3.95973 | 106.45443 | 36846 ft | 493 kts | 169° |
| 2026-05-05 10:24 | -4.02718 | 106.46700 | 36850 ft | 492 kts | 169° |
| 2026-05-05 10:25 | -4.09452 | 106.47957 | 36851 ft | 492 kts | 169° |
| 2026-05-05 10:25 | -4.16180 | 106.49213 | 36847 ft | 492 kts | 169° |
| 2026-05-05 10:26 | -4.22923 | 106.50472 | 36850 ft | 492 kts | 169° |
| 2026-05-05 10:26 | -4.29656 | 106.51730 | 36851 ft | 492 kts | 169° |
| 2026-05-05 10:27 | -4.36387 | 106.52987 | 36852 ft | 492 kts | 169° |
| 2026-05-05 10:27 | -4.41980 | 106.54032 | 36853 ft | 492 kts | 169° |
| 2026-05-05 10:28 | -4.49845 | 106.55501 | 36852 ft | 492 kts | 169° |
| 2026-05-05 10:28 | -4.55451 | 106.56549 | 36397 ft | 499 kts | 169° |
| 2026-05-05 10:29 | -4.58691 | 106.57155 | 35723 ft | 503 kts | 169° |
| 2026-05-05 10:29 | -4.62138 | 106.57799 | 34931 ft | 504 kts | 168° |
| 2026-05-05 10:29 | -4.65586 | 106.58444 | 34083 ft | 506 kts | 168° |
| 2026-05-05 10:29 | -4.69063 | 106.59094 | 33112 ft | 509 kts | 168° |
| 2026-05-05 10:30 | -4.72553 | 106.59747 | 32153 ft | 511 kts | 168° |
| 2026-05-05 10:30 | -4.76057 | 106.60403 | 31185 ft | 513 kts | 168° |
| 2026-05-05 10:30 | -4.79576 | 106.61061 | 30225 ft | 515 kts | 168° |
| 2026-05-05 10:30 | -4.83081 | 106.61709 | 29478 ft | 510 kts | 169° |
| 2026-05-05 10:31 | -4.86592 | 106.62150 | 28725 ft | 505 kts | 174° |
| 2026-05-05 10:31 | -4.90083 | 106.62262 | 28100 ft | 499 kts | 180° |
| 2026-05-05 10:31 | -4.93526 | 106.62126 | 27514 ft | 492 kts | 181° |
| 2026-05-05 10:31 | -4.96927 | 106.61969 | 26925 ft | 486 kts | 181° |
| 2026-05-05 10:32 | -5.00284 | 106.61814 | 26340 ft | 481 kts | 181° |
| 2026-05-05 10:32 | -5.03602 | 106.61669 | 25782 ft | 476 kts | 181° |
| 2026-05-05 10:32 | -5.06643 | 106.61545 | 25238 ft | 472 kts | 181° |
| 2026-05-05 10:32 | -5.09901 | 106.61419 | 24671 ft | 468 kts | 181° |
| 2026-05-05 10:33 | -5.13153 | 106.61298 | 24108 ft | 464 kts | 180° |
| 2026-05-05 10:33 | -5.16358 | 106.61180 | 23553 ft | 461 kts | 180° |
| 2026-05-05 10:33 | -5.19539 | 106.61064 | 22911 ft | 458 kts | 180° |
| 2026-05-05 10:33 | -5.22717 | 106.60947 | 22329 ft | 453 kts | 180° |
| 2026-05-05 10:34 | -5.25847 | 106.60832 | 21772 ft | 448 kts | 180° |
| 2026-05-05 10:34 | -5.28944 | 106.60718 | 21233 ft | 443 kts | 180° |
| 2026-05-05 10:34 | -5.32015 | 106.60604 | 20705 ft | 439 kts | 180° |
| 2026-05-05 10:34 | -5.35055 | 106.60492 | 20171 ft | 435 kts | 180° |
| 2026-05-05 10:35 | -5.38069 | 106.60380 | 19663 ft | 432 kts | 180° |
| 2026-05-05 10:35 | -5.41059 | 106.60270 | 19128 ft | 429 kts | 180° |
| 2026-05-05 10:35 | -5.44025 | 106.60160 | 18612 ft | 426 kts | 181° |
| 2026-05-05 10:35 | -5.46979 | 106.60051 | 18097 ft | 423 kts | 180° |
| 2026-05-05 10:36 | -5.49911 | 106.59942 | 17506 ft | 420 kts | 181° |
| 2026-05-05 10:36 | -5.52810 | 106.59835 | 16988 ft | 416 kts | 180° |
| 2026-05-05 10:36 | -5.55688 | 106.59728 | 16473 ft | 412 kts | 181° |
| 2026-05-05 10:36 | -5.58536 | 106.59623 | 15981 ft | 408 kts | 180° |
| 2026-05-05 10:37 | -5.61357 | 106.59518 | 15490 ft | 405 kts | 181° |
| 2026-05-05 10:37 | -5.64164 | 106.59414 | 15007 ft | 402 kts | 180° |
| 2026-05-05 10:37 | -5.66944 | 106.59311 | 14506 ft | 399 kts | 180° |
| 2026-05-05 10:37 | -5.69715 | 106.59209 | 14026 ft | 397 kts | 180° |
| 2026-05-05 10:38 | -5.72467 | 106.59107 | 13520 ft | 395 kts | 180° |
| 2026-05-05 10:38 | -5.75206 | 106.59005 | 12974 ft | 393 kts | 180° |
| 2026-05-05 10:38 | -5.77924 | 106.58904 | 12481 ft | 389 kts | 181° |
| 2026-05-05 10:38 | -5.80579 | 106.58806 | 12026 ft | 385 kts | 180° |
| 2026-05-05 10:39 | -5.83260 | 106.58706 | 11660 ft | 378 kts | 180° |
| 2026-05-05 10:39 | -5.85837 | 106.58611 | 11227 ft | 374 kts | 180° |
| 2026-05-05 10:39 | -5.88421 | 106.58515 | 10799 ft | 370 kts | 181° |
| 2026-05-05 10:39 | -5.90914 | 106.58114 | 10381 ft | 362 kts | 199° |
| 2026-05-05 10:40 | -5.93061 | 106.56830 | 10068 ft | 359 kts | 220° |
| 2026-05-05 10:40 | -5.94648 | 106.55004 | 9909 ft | 349 kts | 237° |
| 2026-05-05 10:40 | -5.95714 | 106.52814 | 9833 ft | 336 kts | 247° |
| 2026-05-05 10:40 | -5.96565 | 106.50672 | 9749 ft | 325 kts | 248° |
| 2026-05-05 10:41 | -5.97371 | 106.48593 | 9670 ft | 314 kts | 248° |
| 2026-05-05 10:41 | -5.98156 | 106.46592 | 9573 ft | 303 kts | 248° |
| 2026-05-05 10:41 | -5.98925 | 106.44659 | 9444 ft | 294 kts | 247° |
| 2026-05-05 10:41 | -5.99685 | 106.42767 | 9182 ft | 291 kts | 247° |
| 2026-05-05 10:42 | -6.01197 | 106.39039 | 8588 ft | 287 kts | 247° |
| 2026-05-05 10:42 | -6.01953 | 106.37184 | 8264 ft | 286 kts | 247° |
| 2026-05-05 10:42 | -6.02697 | 106.35356 | 8125 ft | 277 kts | 247° |
| 2026-05-05 10:43 | -6.03458 | 106.33633 | 8015 ft | 264 kts | 236° |
| 2026-05-05 10:43 | -6.04733 | 106.32389 | 7773 ft | 252 kts | 205° |
| 2026-05-05 10:43 | -6.06365 | 106.31876 | 7558 ft | 242 kts | 184° |
| 2026-05-05 10:43 | -6.08020 | 106.31914 | 7261 ft | 237 kts | 169° |
| 2026-05-05 10:44 | -6.09635 | 106.32198 | 6965 ft | 235 kts | 167° |
| 2026-05-05 10:44 | -6.11241 | 106.32509 | 6663 ft | 235 kts | 167° |
| 2026-05-05 10:44 | -6.12828 | 106.32809 | 6378 ft | 234 kts | 167° |
| 2026-05-05 10:44 | -6.14443 | 106.33105 | 6093 ft | 232 kts | 167° |
| 2026-05-05 10:45 | -6.16023 | 106.33389 | 5826 ft | 229 kts | 168° |
| 2026-05-05 10:45 | -6.17592 | 106.33669 | 5531 ft | 229 kts | 168° |
| 2026-05-05 10:45 | -6.19138 | 106.33943 | 5358 ft | 221 kts | 167° |
| 2026-05-05 10:45 | -6.20489 | 106.34471 | 5079 ft | 208 kts | 138° |
| 2026-05-05 10:46 | -6.21403 | 106.35577 | 4862 ft | 203 kts | 122° |
| 2026-05-05 10:46 | -6.22152 | 106.36765 | 4669 ft | 203 kts | 121° |
| 2026-05-05 10:46 | -6.22890 | 106.37960 | 4466 ft | 200 kts | 121° |
| 2026-05-05 10:46 | -6.23521 | 106.39176 | 4284 ft | 193 kts | 102° |
| 2026-05-05 10:47 | -6.23422 | 106.40500 | 4162 ft | 194 kts | 76° |
| 2026-05-05 10:47 | -6.23078 | 106.41840 | 4101 ft | 201 kts | 75° |
| 2026-05-05 10:47 | -6.22660 | 106.43185 | 4037 ft | 201 kts | 72° |
| 2026-05-05 10:47 | -6.22178 | 106.44493 | 3960 ft | 201 kts | 70° |
| 2026-05-05 10:48 | -6.21661 | 106.45815 | 3701 ft | 204 kts | 69° |
| 2026-05-05 10:48 | -6.21136 | 106.47134 | 3440 ft | 202 kts | 69° |
| 2026-05-05 10:48 | -6.20616 | 106.48434 | 3197 ft | 198 kts | 69° |
| 2026-05-05 10:48 | -6.20117 | 106.49682 | 2964 ft | 185 kts | 69° |
| 2026-05-05 10:49 | -6.19657 | 106.50835 | 2702 ft | 170 kts | 69° |
| 2026-05-05 10:49 | -6.19238 | 106.51885 | 2520 ft | 159 kts | 69° |
| 2026-05-05 10:49 | -6.18822 | 106.52926 | 2330 ft | 163 kts | 69° |
| 2026-05-05 10:49 | -6.18403 | 106.53977 | 2117 ft | 161 kts | 69° |
| 2026-05-05 10:50 | -6.17990 | 106.55009 | 1886 ft | 156 kts | 69° |
| 2026-05-05 10:50 | -6.17591 | 106.56009 | 1708 ft | 153 kts | 68° |
| 2026-05-05 10:50 | -6.17188 | 106.57020 | 1514 ft | 158 kts | 67° |
| 2026-05-05 10:50 | -6.16779 | 106.58044 | 1314 ft | 158 kts | 67° |
| 2026-05-05 10:51 | -6.16366 | 106.59077 | 1100 ft | 160 kts | 68° |
| 2026-05-05 10:51 | -6.15960 | 106.60094 | 900 ft | 154 kts | 68° |
| 2026-05-05 10:51 | -6.15564 | 106.61087 | 722 ft | 153 kts | 67° |
| 2026-05-05 10:51 | -6.15161 | 106.62086 | 510 ft | 154 kts | 66° |
| 2026-05-05 10:52 | -6.14776 | 106.63079 | 363 ft | 155 kts | 64° |
| 2026-05-05 10:52 | -6.14365 | 106.64099 | 161 ft | 155 kts | 66° |
| 2026-05-05 10:52 | -6.13971 | 106.65079 | 43 ft | 147 kts | 67° |
| 2026-05-05 10:52 | -6.13631 | 106.65914 | 44 ft | 108 kts | 68° |
| 2026-05-05 10:53 | -6.13417 | 106.66453 | 47 ft | 52 kts | 68° |
| 2026-05-05 10:53 | -6.13257 | 106.66669 | 46 ft | 33 kts | 38° |
| 2026-05-05 10:53 | -6.13155 | 106.66697 | 44 ft | 7 kts | 348° |
| 2026-05-05 10:53 | -6.13117 | 106.66730 | 44 ft | 8 kts | 59° |
| 2026-05-05 10:54 | -6.13094 | 106.66782 | 44 ft | 8 kts | 69° |
| 2026-05-05 10:54 | -6.13064 | 106.66859 | 44 ft | 16 kts | 68° |
| 2026-05-05 10:54 | -6.13009 | 106.66998 | 43 ft | 25 kts | 68° |
| 2026-05-05 10:54 | -6.12944 | 106.67161 | 44 ft | 26 kts | 69° |
| 2026-05-05 10:55 | -6.12878 | 106.67326 | 43 ft | 26 kts | 69° |
| 2026-05-05 10:55 | -6.12810 | 106.67490 | 43 ft | 25 kts | 61° |
| 2026-05-05 10:55 | -6.12717 | 106.67641 | 43 ft | 25 kts | 58° |
| 2026-05-05 10:55 | -6.12614 | 106.67786 | 43 ft | 25 kts | 42° |
| 2026-05-05 10:56 | -6.12470 | 106.67857 | 43 ft | 18 kts | 11° |
| 2026-05-05 10:56 | -6.12346 | 106.67859 | 43 ft | 18 kts | 349° |
| 2026-05-05 10:56 | -6.12228 | 106.67816 | 47 ft | 18 kts | 338° |
| 2026-05-05 10:56 | -6.12111 | 106.67770 | 52 ft | 18 kts | 338° |
| 2026-05-05 10:57 | -6.11995 | 106.67724 | 53 ft | 18 kts | 339° |
| 2026-05-05 10:57 | -6.11878 | 106.67678 | 60 ft | 18 kts | 336° |
| 2026-05-05 10:57 | -6.11762 | 106.67630 | 66 ft | 18 kts | 338° |
| 2026-05-05 10:57 | -6.11643 | 106.67586 | 47 ft | 1 kts | 340° |
| 2026-05-05 10:58 | -6.11642 | 106.67585 | 46 ft | 0 kts | 339° |
| 2026-05-05 10:58 | -6.11572 | 106.67557 | 43 ft | 20 kts | 336° |
| 2026-05-05 10:59 | -6.11421 | 106.67495 | 43 ft | 23 kts | 338° |
| 2026-05-05 10:59 | -6.11303 | 106.67449 | 43 ft | 19 kts | 338° |
| 2026-05-05 10:59 | -6.11182 | 106.67401 | 43 ft | 19 kts | 338° |
| 2026-05-05 10:59 | -6.11088 | 106.67321 | 43 ft | 19 kts | 283° |
| 2026-05-05 11:00 | -6.11101 | 106.67203 | 43 ft | 16 kts | 255° |
| 2026-05-05 11:00 | -6.11128 | 106.67096 | 43 ft | 16 kts | 256° |
| 2026-05-05 11:00 | -6.11154 | 106.66990 | 43 ft | 16 kts | 253° |
| 2026-05-05 11:00 | -6.11195 | 106.66888 | 43 ft | 16 kts | 248° |
| 2026-05-05 11:01 | -6.11236 | 106.66786 | 43 ft | 16 kts | 249° |
| 2026-05-05 11:01 | -6.11277 | 106.66684 | 43 ft | 16 kts | 248° |
| 2026-05-05 11:01 | -6.11317 | 106.66582 | 43 ft | 16 kts | 248° |
| 2026-05-05 11:01 | -6.11358 | 106.66480 | 43 ft | 16 kts | 248° |
| 2026-05-05 11:02 | -6.11399 | 106.66378 | 43 ft | 16 kts | 248° |
| 2026-05-05 11:02 | -6.11439 | 106.66276 | 43 ft | 16 kts | 248° |
| 2026-05-05 11:02 | -6.11480 | 106.66174 | 43 ft | 16 kts | 248° |
| 2026-05-05 11:02 | -6.11520 | 106.66072 | 43 ft | 16 kts | 248° |
| 2026-05-05 11:03 | -6.11556 | 106.65982 | 43 ft | 8 kts | 248° |
| 2026-05-05 11:03 | -6.11598 | 106.65949 | 43 ft | 9 kts | 180° |
| 2026-05-05 11:03 | -6.11658 | 106.65967 | 43 ft | 9 kts | 159° |
| 2026-05-05 11:03 | -6.11719 | 106.65991 | 43 ft | 9 kts | 158° |
| 2026-05-05 11:04 | -6.11780 | 106.66017 | 43 ft | 10 kts | 152° |
| 2026-05-05 11:04 | -6.11793 | 106.66081 | 43 ft | 10 kts | 77° |
| 2026-05-05 11:04 | -6.11767 | 106.66150 | 43 ft | 11 kts | 68° |
| 2026-05-05 11:04 | -6.11772 | 106.66201 | 43 ft | 8 kts | 133° |
| 2026-05-05 11:05 | -6.11820 | 106.66225 | 43 ft | 3 kts | 158° |
| 2026-05-05 11:05 | -6.11839 | 106.66232 | 43 ft | 2 kts | 159° |
| 2026-05-05 11:05 | -6.11841 | 106.66233 | 43 ft | 0 kts | 159° |